Time;durP1;ratioP1;P1;durP2;ratioP2;P2;SDS_P1;SDS_P2;PMS_P1;PMS_P2;Temp;Humidity;BMP_temperature;BMP_pressure;BME280_temperature;BME280_humidity;BME280_pressure;Samples;Min_cycle;Max_cycle;Signal;HPM_P1;HPM_P2
2023/08/03 00:00:29;;;;;;;3.33;1.93;;;;;;;20.67;nan;98285.41;4985564;28;20210;-78
2023/08/03 00:02:54;;;;;;;8.33;3.40;;;;;;;20.67;nan;98299.56;4986519;28;20254;-78
2023/08/03 00:05:20;;;;;;;3.90;1.70;;;;;;;20.67;nan;98304.09;4982614;28;20489;-78
2023/08/03 00:07:50;;;;;;;3.23;1.80;;;;;;;20.65;nan;98304.28;4984813;28;20450;-78
2023/08/03 00:10:17;;;;;;;2.20;1.47;;;;;;;20.66;nan;98307.78;4984931;28;20489;-76
2023/08/03 00:12:44;;;;;;;4.40;2.10;;;;;;;20.63;nan;98302.81;4982237;28;20504;-76
2023/08/03 00:15:11;;;;;;;5.53;1.60;;;;;;;20.62;nan;98306.50;4987732;28;20474;-78
2023/08/03 00:17:37;;;;;;;5.73;1.87;;;;;;;20.60;nan;98301.34;4986070;28;21256;-77
2023/08/03 00:20:04;;;;;;;3.53;1.60;;;;;;;20.63;nan;98314.34;4987561;28;20449;-77
2023/08/03 00:22:33;;;;;;;6.10;1.53;;;;;;;20.63;nan;98308.16;4987431;28;20436;-77
2023/08/03 00:24:59;;;;;;;6.57;1.90;;;;;;;20.61;nan;98307.53;4984067;28;20501;-77
2023/08/03 00:27:25;;;;;;;3.30;1.90;;;;;;;20.61;nan;98310.22;4984421;28;20467;-76
2023/08/03 00:29:52;;;;;;;4.60;2.17;;;;;;;20.61;nan;98308.34;4986505;28;20701;-76
2023/08/03 00:32:18;;;;;;;4.90;1.53;;;;;;;20.62;nan;98304.66;4984581;28;20505;-77
2023/08/03 00:34:44;;;;;;;2.70;1.83;;;;;;;20.65;nan;98303.44;4983765;28;20251;-76
2023/08/03 00:37:13;;;;;;;3.53;1.47;;;;;;;20.67;nan;98301.41;4986150;28;20274;-76
2023/08/03 00:39:38;;;;;;;3.17;2.20;;;;;;;20.68;nan;98303.06;4985211;28;20366;-77
2023/08/03 00:42:05;;;;;;;5.07;1.60;;;;;;;20.69;nan;98294.88;4981723;28;20834;-78
2023/08/03 00:44:30;;;;;;;3.63;1.97;;;;;;;20.66;nan;98295.25;4985373;28;20213;-76
2023/08/03 00:46:56;;;;;;;4.30;1.50;;;;;;;20.65;nan;98298.13;4987168;28;20499;-76
2023/08/03 00:49:27;;;;;;;4.23;1.63;;;;;;;20.68;nan;98306.53;4984342;28;20198;-76
2023/08/03 00:51:53;;;;;;;8.03;2.77;;;;;;;20.68;nan;98311.06;4984083;28;20199;-76
2023/08/03 00:54:19;;;;;;;3.47;1.53;;;;;;;20.67;nan;98299.56;4980503;28;20474;-77
2023/08/03 00:56:45;;;;;;;6.23;1.70;;;;;;;20.68;nan;98313.72;4984102;28;20878;-77
2023/08/03 00:59:11;;;;;;;1.80;1.30;;;;;;;20.64;nan;98296.47;4984979;28;20199;-77
2023/08/03 01:01:37;;;;;;;3.63;1.90;;;;;;;20.65;nan;98304.28;4981954;28;20364;-77
2023/08/03 01:04:03;;;;;;;7.00;2.30;;;;;;;20.64;nan;98305.28;4985915;28;20212;-77
2023/08/03 01:06:28;;;;;;;4.50;1.57;;;;;;;20.64;nan;98307.16;4984794;28;20478;-77
2023/08/03 01:08:55;;;;;;;4.80;2.23;;;;;;;20.62;nan;98303.84;4983482;28;20205;-77
2023/08/03 01:11:20;;;;;;;6.93;1.83;;;;;;;20.60;nan;98303.19;4984141;28;20211;-77
2023/08/03 01:13:46;;;;;;;9.57;2.00;;;;;;;20.57;nan;98307.09;4983587;28;21039;-77
2023/08/03 01:16:12;;;;;;;3.33;2.10;;;;;;;20.54;nan;98316.28;4986710;28;20482;-77
2023/08/03 01:18:42;;;;;;;3.60;2.27;;;;;;;20.53;nan;98317.31;4988571;28;20213;-77
2023/08/03 01:21:08;;;;;;;4.53;1.67;;;;;;;20.53;nan;98316.47;4986747;28;20460;-77
2023/08/03 01:23:34;;;;;;;5.50;1.67;;;;;;;20.50;nan;98309.69;4984692;28;20475;-76
2023/08/03 01:25:59;;;;;;;12.17;2.13;;;;;;;20.50;nan;98314.19;4986477;28;20432;-75
2023/08/03 01:28:25;;;;;;;5.17;1.60;;;;;;;20.48;nan;98306.38;4983927;28;21283;-76
2023/08/03 01:30:50;;;;;;;3.37;1.43;;;;;;;20.44;nan;98321.13;4983419;28;20201;-76
2023/08/03 01:33:16;;;;;;;3.35;1.60;;;;;;;20.43;nan;98326.63;4972738;28;20423;-77
2023/08/03 01:35:41;;;;;;;4.00;1.60;;;;;;;20.42;nan;98325.81;4979948;28;20440;-75
2023/08/03 01:38:07;;;;;;;7.50;1.40;;;;;;;20.41;nan;98323.34;4978698;28;20207;-76
2023/08/03 01:40:33;;;;;;;2.33;1.50;;;;;;;20.39;nan;98326.22;4977519;28;20206;-76
2023/08/03 01:42:58;;;;;;;2.03;1.37;;;;;;;20.39;nan;98328.03;4980854;28;20201;-77
2023/08/03 01:45:24;;;;;;;5.37;3.23;;;;;;;20.39;nan;98326.22;4980588;28;20207;-77
2023/08/03 01:47:49;;;;;;;3.20;1.40;;;;;;;20.37;nan;98332.75;4978052;28;20296;-77
2023/08/03 01:50:15;;;;;;;5.03;1.40;;;;;;;20.36;nan;98326.59;4980084;28;20340;-76
2023/08/03 01:52:40;;;;;;;1.63;1.33;;;;;;;20.36;nan;98326.59;4977294;28;20949;-76
2023/08/03 01:55:06;;;;;;;6.50;1.87;;;;;;;20.37;nan;98338.09;4980758;28;20214;-76
2023/08/03 01:57:31;;;;;;;4.33;1.80;;;;;;;20.34;nan;98321.44;4977011;28;20251;-75
2023/08/03 01:59:57;;;;;;;5.97;2.40;;;;;;;20.34;nan;98326.78;4991143;28;20611;-76
2023/08/03 02:02:23;;;;;;;9.17;1.57;;;;;;;20.32;nan;98325.31;4986223;28;20388;-77
2023/08/03 02:04:50;;;;;;;2.53;1.10;;;;;;;20.34;nan;98328.63;4981042;28;20700;-75
2023/08/03 02:07:37;;;;;;;6.40;1.27;;;;;;;20.32;nan;98346.66;4994832;28;20491;-76
2023/08/03 02:10:03;;;;;;;3.63;1.30;;;;;;;20.31;nan;98337.81;4977917;28;20467;-75
2023/08/03 02:12:28;;;;;;;3.30;0.97;;;;;;;20.32;nan;98335.97;4980917;28;20508;-76
2023/08/03 02:14:54;;;;;;;4.13;1.50;;;;;;;20.32;nan;98338.66;4984756;28;20719;-76
2023/08/03 02:17:20;;;;;;;5.30;1.90;;;;;;;20.30;nan;98344.16;4991561;28;20980;-75
2023/08/03 02:19:46;;;;;;;2.20;1.20;;;;;;;20.29;nan;98350.53;4979020;28;20458;-75
2023/08/03 02:22:11;;;;;;;3.37;1.67;;;;;;;20.27;nan;98357.06;4979417;28;20452;-76
2023/08/03 02:24:37;;;;;;;2.40;1.10;;;;;;;20.25;nan;98367.09;4976678;28;20248;-75
2023/08/03 02:27:02;;;;;;;3.90;1.63;;;;;;;20.21;nan;98371.97;4980114;28;20221;-77
2023/08/03 02:29:28;;;;;;;1.83;1.40;;;;;;;20.15;nan;98366.59;4981306;28;21375;-76
2023/08/03 02:31:53;;;;;;;4.00;1.00;;;;;;;20.08;nan;98371.84;4978690;28;20209;-77
2023/08/03 02:34:19;;;;;;;3.07;1.60;;;;;;;20.03;nan;98380.38;4987064;28;20198;-77
2023/08/03 02:36:45;;;;;;;1.10;1.00;;;;;;;19.96;nan;98376.84;4982407;28;20426;-76
2023/08/03 02:39:10;;;;;;;4.03;1.03;;;;;;;19.89;nan;98373.25;4980159;28;21676;-76
2023/08/03 02:41:38;;;;;;;8.13;1.50;;;;;;;19.83;nan;98360.69;4986837;28;20197;-76
2023/08/03 02:44:07;;;;;;;3.40;1.63;;;;;;;19.81;nan;98378.72;4983817;28;21186;-77
2023/08/03 02:46:34;;;;;;;4.33;1.53;;;;;;;19.75;nan;98382.94;4989545;28;20489;-77
2023/08/03 02:49:01;;;;;;;3.97;2.30;;;;;;;19.70;nan;98377.34;4976460;28;20459;-77
2023/08/03 02:51:30;;;;;;;4.20;1.70;;;;;;;19.64;nan;98378.88;4977658;28;20456;-76
2023/08/03 02:53:56;;;;;;;3.60;1.50;;;;;;;19.58;nan;98384.97;4984129;28;20449;-76
2023/08/03 02:56:22;;;;;;;5.97;2.10;;;;;;;19.54;nan;98380.19;4980114;28;21505;-77
2023/08/03 02:58:51;;;;;;;4.20;1.20;;;;;;;19.54;nan;98382.84;4985224;28;21253;-75
2023/08/03 03:01:27;;;;;;;3.53;1.60;;;;;;;19.52;nan;98396.34;4984144;28;20443;-76
2023/08/03 03:03:54;;;;;;;2.87;1.07;;;;;;;19.46;nan;98399.75;4977755;28;20446;-77
2023/08/03 03:06:20;;;;;;;9.23;1.97;;;;;;;19.42;nan;98393.16;4979435;28;20451;-77
2023/08/03 03:08:48;;;;;;;2.57;1.00;;;;;;;19.42;nan;98398.47;4981697;28;20225;-76
2023/08/03 03:11:13;;;;;;;4.10;1.10;;;;;;;19.35;nan;98385.06;4977185;28;20760;-77
2023/08/03 03:13:39;;;;;;;1.50;1.40;;;;;;;19.34;nan;98398.56;4986460;28;20211;-76
2023/08/03 03:16:05;;;;;;;4.30;1.63;;;;;;;19.29;nan;98399.09;4989872;28;20207;-77
2023/08/03 03:18:31;;;;;;;2.10;1.00;;;;;;;19.28;nan;98396.63;4986151;28;20211;-76
2023/08/03 03:20:56;;;;;;;4.43;1.40;;;;;;;19.28;nan;98404.59;4989155;28;20308;-75
2023/08/03 03:23:21;;;;;;;4.87;1.53;;;;;;;19.23;nan;98394.53;4980971;28;20213;-76
2023/08/03 03:25:47;;;;;;;3.00;1.30;;;;;;;19.21;nan;98397.34;4983650;28;20746;-75
2023/08/03 03:28:12;;;;;;;4.30;1.53;;;;;;;19.20;nan;98403.69;4986914;28;20617;-75
2023/08/03 03:30:38;;;;;;;4.10;1.83;;;;;;;19.19;nan;98398.53;4996624;28;20208;-76
2023/08/03 03:33:03;;;;;;;3.77;1.50;;;;;;;19.11;nan;98401.28;4980998;28;20192;-75
2023/08/03 03:35:29;;;;;;;5.30;1.65;;;;;;;19.06;nan;98417.78;4979368;28;20443;-77
2023/08/03 03:37:54;;;;;;;3.37;1.30;;;;;;;19.09;nan;98417.47;4982375;28;20752;-75
2023/08/03 03:40:24;;;;;;;3.20;1.50;;;;;;;19.09;nan;98416.59;4979880;28;20203;-76
2023/08/03 03:42:50;;;;;;;6.63;1.40;;;;;;;19.05;nan;98418.81;4976469;28;20449;-76
2023/08/03 03:45:17;;;;;;;3.77;1.63;;;;;;;19.07;nan;98411.47;4980793;28;20296;-76
2023/08/03 03:47:42;;;;;;;6.10;1.67;;;;;;;19.11;nan;98411.94;4983523;28;20474;-75
2023/08/03 03:50:09;;;;;;;2.03;1.20;;;;;;;19.15;nan;98413.25;4981179;28;20750;-76
2023/08/03 03:52:34;;;;;;;2.87;2.60;;;;;;;19.16;nan;98410.38;4978312;28;20437;-75
2023/08/03 03:55:00;;;;;;;7.30;1.90;;;;;;;19.18;nan;98413.69;4976090;28;20440;-76
2023/08/03 03:57:25;;;;;;;5.00;1.93;;;;;;;19.19;nan;98422.50;4984921;28;20257;-75
2023/08/03 03:59:51;;;;;;;4.87;1.77;;;;;;;19.17;nan;98425.38;4984251;28;20565;-75
2023/08/03 04:02:16;;;;;;;7.67;1.80;;;;;;;19.18;nan;98416.34;4983816;28;20234;-76
2023/08/03 04:04:42;;;;;;;3.20;1.73;;;;;;;19.21;nan;98412.50;4985757;28;20211;-75
2023/08/03 04:07:08;;;;;;;5.70;1.77;;;;;;;19.24;nan;98412.13;4984970;28;20261;-76
2023/08/03 04:09:33;;;;;;;12.33;3.63;;;;;;;19.31;nan;98426.38;4979423;28;20428;-76
2023/08/03 04:11:58;;;;;;;1.90;1.20;;;;;;;19.29;nan;98415.09;4987319;28;20202;-76
2023/08/03 04:14:24;;;;;;;2.93;1.67;;;;;;;19.29;nan;98419.59;4978677;28;21135;-76
2023/08/03 04:16:50;;;;;;;7.27;1.30;;;;;;;19.31;nan;98428.19;4980800;28;20264;-76
2023/08/03 04:19:16;;;;;;;2.13;1.30;;;;;;;19.34;nan;98425.19;4979341;28;20214;-76
2023/08/03 04:21:41;;;;;;;5.90;1.30;;;;;;;19.35;nan;98426.84;4979531;28;20442;-76
2023/08/03 04:24:06;;;;;;;3.20;1.63;;;;;;;19.34;nan;98419.88;4988044;28;20310;-76
2023/08/03 04:26:33;;;;;;;2.00;1.47;;;;;;;19.35;nan;98421.50;4993290;28;20201;-76
2023/08/03 04:28:59;;;;;;;5.30;1.60;;;;;;;19.33;nan;98429.66;4981306;28;20497;-76
2023/08/03 04:31:27;;;;;;;6.07;1.40;;;;;;;19.32;nan;98428.03;4981840;28;20237;-76
2023/08/03 04:33:53;;;;;;;5.17;1.43;;;;;;;19.29;nan;98441.72;4991312;28;20487;-76
2023/08/03 04:36:20;;;;;;;2.72;1.67;;;;;;;19.28;nan;98445.38;4984828;28;20421;-76
2023/08/03 04:38:46;;;;;;;6.23;1.40;;;;;;;19.24;nan;98447.56;4984407;28;20230;-76
2023/08/03 04:41:13;;;;;;;7.33;1.43;;;;;;;19.23;nan;98456.56;4985117;28;20209;-77
2023/08/03 04:43:42;;;;;;;2.47;1.57;;;;;;;19.20;nan;98462.25;5004634;28;20220;-76
2023/08/03 04:46:08;;;;;;;3.03;1.03;;;;;;;19.18;nan;98461.59;4991417;28;21054;-77
2023/08/03 04:48:33;;;;;;;2.00;1.03;;;;;;;19.15;nan;98469.13;4984717;28;20440;-77
2023/08/03 04:51:02;;;;;;;1.90;1.17;;;;;;;19.11;nan;98471.31;4989214;28;20225;-76
2023/08/03 04:53:27;;;;;;;1.60;1.03;;;;;;;19.10;nan;98477.66;4987341;28;21556;-76
2023/08/03 04:55:53;;;;;;;2.97;1.23;;;;;;;19.06;nan;98478.19;4981398;28;20254;-76
2023/08/03 04:58:18;;;;;;;2.80;1.20;;;;;;;19.02;nan;98473.22;4982776;28;20310;-76
2023/08/03 05:00:47;;;;;;;3.63;1.00;;;;;;;19.05;nan;98476.53;4984100;28;20753;-76
2023/08/03 05:03:13;;;;;;;3.10;1.53;;;;;;;19.08;nan;98484.16;4981246;28;20443;-76
2023/08/03 05:05:38;;;;;;;4.20;1.30;;;;;;;19.09;nan;98486.66;4982093;28;20204;-76
2023/08/03 05:08:04;;;;;;;2.80;1.60;;;;;;;19.10;nan;98479.50;4983360;28;20210;-76
2023/08/03 05:10:30;;;;;;;1.70;1.20;;;;;;;19.09;nan;98478.66;4990482;28;20460;-76
2023/08/03 05:12:55;;;;;;;5.93;1.30;;;;;;;19.12;nan;98480.97;4988026;28;20306;-76
2023/08/03 05:15:21;;;;;;;4.30;1.40;;;;;;;19.14;nan;98480.78;4981982;28;20432;-76
2023/08/03 05:17:49;;;;;;;2.13;1.00;;;;;;;19.21;nan;98492.38;4985792;28;21248;-76
2023/08/03 05:20:15;;;;;;;3.10;1.37;;;;;;;19.17;nan;98491.06;4981200;28;20217;-76
2023/08/03 05:22:40;;;;;;;2.00;1.23;;;;;;;19.17;nan;98488.41;4983876;28;20468;-77
2023/08/03 05:25:06;;;;;;;4.03;1.37;;;;;;;19.17;nan;98491.91;4981866;28;20484;-76
2023/08/03 05:27:31;;;;;;;4.03;1.07;;;;;;;19.23;nan;98491.19;4984031;28;20326;-76
2023/08/03 05:29:58;;;;;;;6.63;1.50;;;;;;;19.29;nan;98504.78;4983565;28;20260;-75
2023/08/03 05:32:26;;;;;;;2.40;1.63;;;;;;;19.33;nan;98506.88;4984117;28;20244;-76
2023/08/03 05:34:52;;;;;;;2.10;1.17;;;;;;;19.33;nan;98498.91;4984081;28;20482;-75
2023/08/03 05:37:17;;;;;;;4.53;2.20;;;;;;;19.32;nan;98494.59;4983647;28;20586;-76
2023/08/03 05:39:43;;;;;;;2.93;1.50;;;;;;;19.35;nan;98509.38;4984295;28;20204;-76
2023/08/03 05:42:12;;;;;;;1.37;0.80;;;;;;;19.40;nan;98507.00;4984432;28;20321;-76
2023/08/03 05:44:38;;;;;;;1.93;1.00;;;;;;;19.42;nan;98497.81;4982482;28;20216;-76
2023/08/03 05:47:05;;;;;;;2.33;1.13;;;;;;;19.50;nan;98515.56;4984656;28;20852;-76
2023/08/03 05:49:30;;;;;;;3.03;1.27;;;;;;;19.54;nan;98506.19;4979899;28;20212;-76
2023/08/03 05:51:55;;;;;;;3.23;1.50;;;;;;;19.58;nan;98509.34;4983665;28;20465;-76
2023/08/03 05:54:21;;;;;;;3.07;1.10;;;;;;;19.66;nan;98520.75;4982515;28;20188;-76
2023/08/03 05:56:46;;;;;;;2.70;0.97;;;;;;;19.79;nan;98511.28;4984931;28;20226;-76
2023/08/03 05:59:23;;;;;;;2.53;1.33;;;;;;;19.86;nan;98513.03;4985068;28;20275;-76
2023/08/03 06:01:50;;;;;;;2.80;1.20;;;;;;;19.91;nan;98517.81;4982302;28;20771;-76
2023/08/03 06:04:16;;;;;;;2.13;0.97;;;;;;;19.93;nan;98520.28;4982296;28;20562;-76
2023/08/03 06:06:43;;;;;;;3.53;1.80;;;;;;;19.96;nan;98517.28;4980920;28;20482;-77
2023/08/03 06:09:11;;;;;;;4.10;1.60;;;;;;;19.91;nan;98509.84;4983049;28;20743;-76
2023/08/03 06:11:37;;;;;;;3.13;1.50;;;;;;;19.89;nan;98512.66;4981410;28;20428;-76
2023/08/03 06:14:03;;;;;;;5.63;3.07;;;;;;;19.89;nan;98504.66;4983445;28;20455;-77
2023/08/03 06:16:28;;;;;;;2.70;1.47;;;;;;;19.90;nan;98513.50;4981967;28;20972;-76
2023/08/03 06:18:57;;;;;;;4.03;1.33;;;;;;;19.91;nan;98514.34;4982376;28;20616;-76
2023/08/03 06:21:24;;;;;;;0.90;0.73;;;;;;;19.93;nan;98517.63;4985458;28;20215;-75
2023/08/03 06:23:57;;;;;;;1.10;0.87;;;;;;;19.96;nan;98517.28;4980969;28;20467;-76
2023/08/03 06:26:23;;;;;;;1.13;0.90;;;;;;;19.96;nan;98512.78;4984412;28;20497;-76
2023/08/03 06:28:51;;;;;;;2.90;1.10;;;;;;;19.95;nan;98516.44;4981830;28;20468;-76
2023/08/03 06:31:32;;;;;;;1.23;1.00;;;;;;;19.94;nan;98500.63;4976014;28;20433;-76
2023/08/03 06:33:58;;;;;;;1.27;0.80;;;;;;;19.91;nan;98498.34;4972452;28;20526;-76
2023/08/03 06:36:27;;;;;;;2.08;0.98;;;;;;;19.96;nan;98502.13;4974765;28;20541;-76
2023/08/03 06:38:57;;;;;;;6.63;1.23;;;;;;;19.97;nan;98509.09;4975364;28;20185;-75
2023/08/03 06:41:23;;;;;;;2.60;1.00;;;;;;;19.99;nan;98520.41;4976612;28;21395;-76
2023/08/03 06:43:50;;;;;;;4.27;2.90;;;;;;;19.96;nan;98523.44;4974843;28;20583;-76
2023/08/03 06:46:15;;;;;;;3.83;0.90;;;;;;;19.94;nan;98533.44;4976732;28;20513;-77
2023/08/03 06:48:41;;;;;;;2.60;0.97;;;;;;;19.99;nan;98532.91;4974144;28;20448;-76
2023/08/03 06:51:06;;;;;;;0.83;0.80;;;;;;;20.00;nan;98538.03;4978075;28;20213;-76
2023/08/03 06:53:32;;;;;;;6.60;1.00;;;;;;;20.01;nan;98545.03;4975507;28;20891;-76
2023/08/03 06:55:58;;;;;;;4.03;1.20;;;;;;;20.03;nan;98542.16;4976127;28;20212;-76
2023/08/03 06:58:24;;;;;;;4.43;1.03;;;;;;;20.06;nan;98566.63;4977092;28;20452;-76
2023/08/03 07:00:49;;;;;;;2.53;0.80;;;;;;;20.03;nan;98553.66;4974319;28;20223;-76
2023/08/03 07:03:15;;;;;;;2.60;1.03;;;;;;;19.97;nan;98556.25;4974116;28;20249;-76
2023/08/03 07:05:41;;;;;;;3.50;1.10;;;;;;;20.03;nan;98564.31;4976392;28;20463;-76
2023/08/03 07:08:07;;;;;;;4.63;0.90;;;;;;;20.09;nan;98574.25;4974483;28;20329;-76
2023/08/03 07:10:36;;;;;;;2.70;1.20;;;;;;;20.18;nan;98571.50;4973951;28;20301;-76
2023/08/03 07:13:03;;;;;;;2.07;1.20;;;;;;;20.26;nan;98584.75;4978204;28;20204;-76
2023/08/03 07:15:33;;;;;;;2.10;1.07;;;;;;;20.27;nan;98589.06;4977513;28;20431;-76
2023/08/03 07:18:05;;;;;;;2.83;1.10;;;;;;;20.22;nan;98591.44;4974229;28;20473;-76
2023/08/03 07:20:32;;;;;;;3.70;1.20;;;;;;;20.15;nan;98595.88;4975647;28;20546;-76
2023/08/03 07:22:57;;;;;;;6.10;1.00;;;;;;;20.09;nan;98587.59;4978423;28;20575;-76
2023/08/03 07:25:23;;;;;;;4.20;1.73;;;;;;;20.04;nan;98600.66;4972115;28;20476;-80
2023/08/03 07:27:50;;;;;;;3.67;1.27;;;;;;;20.01;nan;98589.50;4974881;28;20211;-81
2023/08/03 07:30:16;;;;;;;3.30;1.47;;;;;;;20.02;nan;98586.66;4974282;28;20468;-78
2023/08/03 07:32:42;;;;;;;4.13;1.00;;;;;;;20.05;nan;98607.63;4973277;28;20494;-80
2023/08/03 07:35:07;;;;;;;5.97;1.73;;;;;;;20.06;nan;98601.28;4974624;28;20245;-80
2023/08/03 07:37:32;;;;;;;1.90;1.00;;;;;;;20.15;nan;98603.88;4974475;28;20232;-79
2023/08/03 07:39:58;;;;;;;1.30;0.83;;;;;;;20.20;nan;98604.97;4974246;28;20732;-79
2023/08/03 07:42:23;;;;;;;2.07;1.20;;;;;;;20.23;nan;98615.25;4978397;28;20200;-79
2023/08/03 07:44:53;;;;;;;2.80;1.30;;;;;;;20.28;nan;98617.34;4976323;28;20442;-76
2023/08/03 07:47:19;;;;;;;3.43;2.03;;;;;;;20.28;nan;98607.53;4974541;28;20223;-78
2023/08/03 07:49:44;;;;;;;1.23;0.80;;;;;;;20.27;nan;98611.22;4978404;28;20463;-78
2023/08/03 07:52:10;;;;;;;4.00;1.20;;;;;;;20.30;nan;98613.50;4974583;28;20210;-78
2023/08/03 07:54:35;;;;;;;2.00;1.00;;;;;;;20.33;nan;98599.81;4971066;28;20205;-78
2023/08/03 07:57:01;;;;;;;2.70;1.07;;;;;;;20.35;nan;98620.94;4976423;28;20281;-80
2023/08/03 07:59:26;;;;;;;1.00;0.73;;;;;;;20.34;nan;98624.66;4974369;28;20212;-78
2023/08/03 08:01:51;;;;;;;1.67;0.93;;;;;;;20.31;nan;98625.84;4977202;28;20689;-78
2023/08/03 08:04:18;;;;;;;2.60;1.00;;;;;;;20.33;nan;98620.31;4978475;28;20300;-78
2023/08/03 08:06:44;;;;;;;1.30;0.80;;;;;;;20.37;nan;98615.44;4977259;28;20216;-79
2023/08/03 08:09:09;;;;;;;1.67;0.70;;;;;;;20.37;nan;98626.94;4975359;28;20443;-79
2023/08/03 08:11:35;;;;;;;4.70;1.13;;;;;;;20.35;nan;98620.94;4980644;28;21512;-78
2023/08/03 08:14:00;;;;;;;1.93;0.73;;;;;;;20.38;nan;98627.75;4977262;28;20197;-78
2023/08/03 08:16:26;;;;;;;1.60;1.00;;;;;;;20.42;nan;98639.72;4978386;28;20699;-78
2023/08/03 08:21:32;;;;;;;3.90;1.10;;;;;;;20.50;nan;98645.78;5836597;23;20484;-76
2023/08/03 08:23:58;;;;;;;2.03;1.10;;;;;;;20.53;nan;98642.78;4967197;28;20520;-77
2023/08/03 08:26:25;;;;;;;4.30;1.30;;;;;;;20.59;nan;98643.06;4965374;28;20213;-77
2023/08/03 08:28:56;;;;;;;2.10;1.00;;;;;;;20.61;nan;98641.88;4950389;28;20793;-77
2023/08/03 08:31:22;;;;;;;1.63;0.90;;;;;;;20.64;nan;98638.00;4948099;28;20746;-77
2023/08/03 08:33:47;;;;;;;5.03;1.10;;;;;;;20.67;nan;98648.28;4947216;28;21043;-77
2023/08/03 08:36:13;;;;;;;2.30;1.20;;;;;;;20.72;nan;98643.22;4947754;28;20217;-77
2023/08/03 08:38:38;;;;;;;4.20;1.10;;;;;;;20.74;nan;98638.53;4945699;28;20213;-77
2023/08/03 08:41:03;;;;;;;1.10;0.70;;;;;;;20.85;nan;98646.06;4948978;28;20238;-77
2023/08/03 08:43:29;;;;;;;4.83;1.00;;;;;;;20.89;nan;98642.00;4963098;28;20234;-77
2023/08/03 08:45:54;;;;;;;1.73;0.80;;;;;;;20.95;nan;98645.75;4948391;28;20214;-77
2023/08/03 08:48:20;;;;;;;2.23;0.90;;;;;;;21.04;nan;98643.81;4944810;28;20215;-77
2023/08/03 08:50:49;;;;;;;1.30;1.00;;;;;;;21.13;nan;98653.34;4949646;28;20567;-76
2023/08/03 08:53:15;;;;;;;4.90;0.80;;;;;;;21.30;nan;98633.38;4947385;28;20318;-76
2023/08/03 08:55:40;;;;;;;2.87;1.50;;;;;;;21.64;nan;98645.25;4943569;28;20480;-76
2023/08/03 08:58:05;;;;;;;1.53;0.70;;;;;;;22.07;nan;98643.34;4949453;28;20322;-76
2023/08/03 09:00:42;;;;;;;3.00;1.00;;;;;;;22.39;nan;98637.59;4946562;28;20204;-77
2023/08/03 09:03:08;;;;;;;5.13;1.00;;;;;;;22.51;nan;98641.38;4947758;28;20223;-76
2023/08/03 09:05:34;;;;;;;1.73;1.00;;;;;;;22.57;nan;98647.78;4947613;28;20445;-77
2023/08/03 09:08:04;;;;;;;1.23;1.00;;;;;;;22.63;nan;98649.66;4947251;28;20236;-75
2023/08/03 09:10:31;;;;;;;1.10;0.90;;;;;;;22.62;nan;98648.00;4947141;28;20432;-74
2023/08/03 09:12:59;;;;;;;2.60;1.03;;;;;;;22.64;nan;98652.13;4942728;28;20535;-74
2023/08/03 09:15:40;;;;;;;2.33;0.90;;;;;;;22.63;nan;98645.16;4948325;28;21409;-76
2023/08/03 09:18:06;;;;;;;1.97;0.90;;;;;;;22.61;nan;98644.50;4945896;28;21509;-76
2023/08/03 09:20:32;;;;;;;1.30;0.83;;;;;;;22.63;nan;98634.44;4947829;28;20481;-77
2023/08/03 09:22:58;;;;;;;3.37;1.63;;;;;;;22.75;nan;98638.19;4946804;28;20483;-76
2023/08/03 09:25:23;;;;;;;1.90;0.90;;;;;;;22.90;nan;98635.38;4945579;28;20454;-76
2023/08/03 09:27:51;;;;;;;2.57;1.03;;;;;;;23.15;nan;98633.00;4948525;28;20680;-76
2023/08/03 09:30:17;;;;;;;3.63;1.00;;;;;;;23.56;nan;98639.25;4946857;28;20270;-77
2023/08/03 09:32:43;;;;;;;2.17;1.30;;;;;;;23.84;nan;98631.88;4945487;28;20432;-77
2023/08/03 09:35:25;;;;;;;0.80;0.70;;;;;;;23.91;nan;98647.94;4943724;28;20422;-76
2023/08/03 09:37:52;;;;;;;1.73;0.77;;;;;;;23.96;nan;98634.72;4948018;28;20233;-76
2023/08/03 09:40:19;;;;;;;1.53;0.97;;;;;;;24.04;nan;98645.25;4948193;28;20434;-77
2023/08/03 09:42:47;;;;;;;0.97;0.80;;;;;;;23.99;nan;98630.81;4942898;28;20485;-76
2023/08/03 09:45:12;;;;;;;1.40;0.90;;;;;;;24.13;nan;98635.13;4946467;28;20465;-76
2023/08/03 09:47:39;;;;;;;2.97;1.20;;;;;;;24.36;nan;98633.81;4949258;28;20444;-76
2023/08/03 09:50:06;;;;;;;1.30;0.77;;;;;;;24.54;nan;98628.66;4946450;28;20255;-77
2023/08/03 09:52:36;;;;;;;0.80;0.73;;;;;;;24.72;nan;98641.41;4944558;28;20445;-76
2023/08/03 09:55:08;;;;;;;0.83;0.70;;;;;;;24.93;nan;98624.97;4945710;28;20970;-77
2023/08/03 09:57:42;;;;;;;2.10;1.00;;;;;;;24.99;nan;98630.53;4947731;28;20523;-78
2023/08/03 10:00:11;;;;;;;2.07;0.87;;;;;;;25.01;nan;98631.16;4949549;28;20421;-78
2023/08/03 10:02:48;;;;;;;2.60;1.10;;;;;;;24.92;nan;98636.78;4946159;28;20436;-78
2023/08/03 10:05:17;;;;;;;1.60;0.90;;;;;;;24.79;nan;98642.22;4947271;28;20433;-78
2023/08/03 10:07:51;;;;;;;2.80;0.90;;;;;;;24.55;nan;98646.41;4943829;28;20506;-78
2023/08/03 10:10:21;;;;;;;1.10;0.73;;;;;;;24.33;nan;98636.94;4945940;28;20589;-78
2023/08/03 10:12:53;;;;;;;2.97;0.83;;;;;;;24.17;nan;98640.88;4945111;28;20430;-77
2023/08/03 10:15:20;;;;;;;2.30;1.10;;;;;;;24.03;nan;98637.41;4947735;28;20444;-78
2023/08/03 10:17:46;;;;;;;1.03;0.70;;;;;;;24.03;nan;98634.72;4945615;28;20454;-77
2023/08/03 10:20:12;;;;;;;2.30;0.80;;;;;;;24.23;nan;98642.75;4945081;28;20457;-78
2023/08/03 10:22:37;;;;;;;2.23;0.80;;;;;;;24.31;nan;98639.84;4942946;28;20591;-78
2023/08/03 10:25:18;;;;;;;1.00;0.80;;;;;;;24.41;nan;98617.91;4945655;28;20509;-78
2023/08/03 10:28:13;;;;;;;1.20;0.90;;;;;;;24.63;nan;98624.72;4945945;28;20236;-77
2023/08/03 10:31:02;;;;;;;1.53;0.80;;;;;;;24.94;nan;98625.81;4935052;28;20438;-76
2023/08/03 10:33:45;;;;;;;2.27;1.00;;;;;;;24.89;nan;98628.31;4943843;28;20442;-78
2023/08/03 10:36:38;;;;;;;3.43;0.70;;;;;;;24.71;nan;98637.06;4947071;28;20465;-77
2023/08/03 10:39:18;;;;;;;3.70;0.90;;;;;;;24.51;nan;98623.69;4944865;28;20590;-77
2023/08/03 10:41:50;;;;;;;1.63;0.80;;;;;;;24.32;nan;98628.06;4943809;28;20850;-78
2023/08/03 10:44:20;;;;;;;2.50;0.90;;;;;;;24.22;nan;98641.09;4945275;28;21400;-75
2023/08/03 10:46:54;;;;;;;4.00;0.77;;;;;;;24.16;nan;98636.56;4944977;28;21025;-76
2023/08/03 10:51:48;;;;;;;1.27;0.77;;;;;;;24.08;nan;98642.97;4942430;28;20423;-77
2023/08/03 10:54:15;;;;;;;1.43;0.80;;;;;;;24.09;nan;98650.00;4945449;28;20218;-77
2023/08/03 10:57:01;;;;;;;0.70;0.70;;;;;;;24.08;nan;98646.47;4944491;28;20957;-78
2023/08/03 10:59:27;;;;;;;1.00;0.80;;;;;;;24.12;nan;98643.41;4942034;28;21541;-77
2023/08/03 11:01:52;;;;;;;1.63;0.80;;;;;;;24.16;nan;98636.56;4941236;28;20432;-78
2023/08/03 11:04:23;;;;;;;1.27;0.90;;;;;;;24.21;nan;98634.06;4944909;28;20442;-77
2023/08/03 11:06:48;;;;;;;1.07;0.80;;;;;;;24.19;nan;98636.97;4944264;28;20692;-78
2023/08/03 11:09:13;;;;;;;2.23;0.97;;;;;;;24.23;nan;98630.16;4944619;28;20453;-77
2023/08/03 11:11:40;;;;;;;2.20;1.33;;;;;;;24.19;nan;98638.81;4943418;28;20198;-77
2023/08/03 11:14:06;;;;;;;3.00;0.90;;;;;;;24.11;nan;98647.09;4943060;28;20203;-78
2023/08/03 11:16:34;;;;;;;2.37;0.90;;;;;;;24.02;nan;98646.50;4946705;28;20451;-78
2023/08/03 11:18:59;;;;;;;3.17;0.77;;;;;;;24.04;nan;98650.63;4942616;28;20199;-78
2023/08/03 11:21:24;;;;;;;1.90;1.50;;;;;;;24.09;nan;98644.63;4945374;28;21104;-78
2023/08/03 11:23:51;;;;;;;1.80;0.93;;;;;;;24.26;nan;98648.50;4944088;28;20714;-77
2023/08/03 11:26:16;;;;;;;1.10;0.90;;;;;;;24.42;nan;98644.56;4942582;28;20203;-77
2023/08/03 11:28:43;;;;;;;1.63;0.70;;;;;;;24.69;nan;98645.34;4945109;28;20451;-77
2023/08/03 11:31:19;;;;;;;2.80;0.80;;;;;;;24.95;nan;98641.72;4943742;28;20213;-78
2023/08/03 11:33:51;;;;;;;1.17;0.83;;;;;;;25.02;nan;98628.25;4940472;28;20494;-78
2023/08/03 11:36:18;;;;;;;2.10;0.90;;;;;;;24.98;nan;98656.59;4946896;28;20462;-77
2023/08/03 11:38:46;;;;;;;1.07;0.80;;;;;;;24.88;nan;98650.84;4949200;28;20430;-77
2023/08/03 11:41:14;;;;;;;2.47;1.00;;;;;;;24.72;nan;98647.59;4948771;28;20404;-78
2023/08/03 11:43:39;;;;;;;2.27;1.03;;;;;;;24.61;nan;98639.38;4947552;28;20447;-78
2023/08/03 11:46:05;;;;;;;2.10;0.87;;;;;;;24.47;nan;98644.78;4951457;28;20528;-78
2023/08/03 11:48:30;;;;;;;2.20;1.00;;;;;;;24.42;nan;98655.31;4947562;28;20397;-75
2023/08/03 11:50:56;;;;;;;1.63;0.90;;;;;;;24.49;nan;98639.19;4949015;28;20230;-78
2023/08/03 11:53:31;;;;;;;0.90;0.80;;;;;;;24.55;nan;98643.75;4944153;28;20226;-77
2023/08/03 11:56:00;;;;;;;1.20;0.80;;;;;;;24.61;nan;98642.06;4949436;28;20226;-78